createdAt,value
2023-02-09T00:02:00.569Z,-1.90
2023-02-09T00:04:25.775Z,-1.90
2023-02-09T00:06:50.410Z,-2.00
2023-02-09T00:09:15.193Z,-1.90
2023-02-09T00:11:58.840Z,-1.70
2023-02-09T00:14:23.563Z,-1.80
2023-02-09T00:16:51.085Z,-1.80
2023-02-09T00:19:16.439Z,-1.70
2023-02-09T00:21:41.815Z,-1.60
2023-02-09T00:24:07.465Z,-1.50
2023-02-09T00:26:32.121Z,-1.40
2023-02-09T00:28:58.177Z,-1.50
2023-02-09T00:31:22.951Z,-1.50
2023-02-09T00:33:47.667Z,-1.50
2023-02-09T00:36:14.355Z,-1.50
2023-02-09T00:38:39.060Z,-1.50
2023-02-09T00:41:04.158Z,-1.40
2023-02-09T00:43:29.095Z,-1.40
2023-02-09T00:45:55.412Z,-1.40
2023-02-09T00:48:20.407Z,-1.50
2023-02-09T00:50:45.491Z,-1.50
2023-02-09T00:53:10.371Z,-1.60
2023-02-09T00:55:38.907Z,-1.80
2023-02-09T00:58:04.946Z,-2.00
2023-02-09T01:00:29.921Z,-2.10
2023-02-09T01:02:57.650Z,-1.90
2023-02-09T01:05:22.858Z,-2.00
2023-02-09T01:07:47.472Z,-2.10
2023-02-09T01:10:12.475Z,-2.10
2023-02-09T01:12:39.851Z,-2.30
2023-02-09T01:15:04.598Z,-2.30
2023-02-09T01:17:29.363Z,-2.40
2023-02-09T01:19:56.675Z,-2.60
2023-02-09T01:22:21.120Z,-2.80
2023-02-09T01:24:46.648Z,-3.00
2023-02-09T01:27:12.667Z,-3.00
2023-02-09T01:29:37.452Z,-3.00
2023-02-09T01:32:02.202Z,-3.00
2023-02-09T01:34:26.962Z,-2.90
2023-02-09T01:36:52.878Z,-2.80
2023-02-09T01:39:18.386Z,-2.80
2023-02-09T01:41:43.585Z,-2.70
2023-02-09T01:44:29.574Z,-2.50
2023-02-09T01:46:54.293Z,-2.30
2023-02-09T01:49:21.543Z,-2.20
2023-02-09T01:51:50.246Z,-2.20
2023-02-09T01:54:22.497Z,-2.20
2023-02-09T01:56:52.564Z,-2.10
2023-02-09T01:59:18.056Z,-2.10
2023-02-09T02:01:44.580Z,-2.10
2023-02-09T02:04:09.806Z,-2.10
2023-02-09T02:06:34.547Z,-2.00
2023-02-09T02:09:03.545Z,-2.00
2023-02-09T02:11:29.969Z,-2.10
2023-02-09T02:13:54.613Z,-2.30
2023-02-09T02:16:51.867Z,-2.30
2023-02-09T02:19:45.797Z,-2.40
2023-02-09T02:22:36.692Z,-2.30
2023-02-09T02:25:30.366Z,-2.40
2023-02-09T02:28:10.633Z,-2.40
2023-02-09T02:30:59.487Z,-2.50
2023-02-09T02:33:37.396Z,-2.60
2023-02-09T02:36:07.971Z,-3.10
2023-02-09T02:38:37.528Z,-3.30
2023-02-09T02:41:14.114Z,-3.50
2023-02-09T02:43:45.505Z,-3.40
2023-02-09T02:46:16.907Z,-3.20
2023-02-09T02:48:47.806Z,-3.20
2023-02-09T02:51:18.435Z,-3.00
2023-02-09T02:53:48.820Z,-2.90
2023-02-09T02:56:19.314Z,-2.90
2023-02-09T02:58:47.708Z,-2.90
2023-02-09T03:01:16.206Z,-3.00
2023-02-09T03:03:44.625Z,-3.00
2023-02-09T03:06:11.672Z,-3.10
2023-02-09T03:08:50.446Z,-3.10
2023-02-09T03:11:15.467Z,-3.00
2023-02-09T03:13:47.048Z,-3.00
2023-02-09T03:16:21.928Z,-3.00
2023-02-09T03:19:00.549Z,-2.90
2023-02-09T03:21:33.608Z,-2.90
2023-02-09T03:24:04.683Z,-2.90
2023-02-09T03:26:34.330Z,-2.90
2023-02-09T03:29:00.392Z,-3.10
2023-02-09T03:31:26.138Z,-3.10
2023-02-09T03:33:53.337Z,-3.10
2023-02-09T03:36:19.664Z,-3.10
2023-02-09T03:38:44.567Z,-3.30
2023-02-09T03:41:09.095Z,-3.50
2023-02-09T03:43:51.120Z,-3.80
2023-02-09T03:46:15.784Z,-4.00
2023-02-09T03:48:40.385Z,-4.30
2023-02-09T03:51:07.257Z,-4.50
2023-02-09T03:53:31.716Z,-4.80
2023-02-09T03:55:56.379Z,-4.90
2023-02-09T03:58:20.886Z,-4.90
2023-02-09T04:00:46.614Z,-5.30
2023-02-09T04:03:11.269Z,-5.40
2023-02-09T04:05:36.198Z,-5.30
2023-02-09T04:08:02.212Z,-5.30
2023-02-09T04:10:26.866Z,-5.50
2023-02-09T04:12:51.363Z,-5.40
2023-02-09T04:15:16.007Z,-5.40
2023-02-09T04:17:40.500Z,-5.60
2023-02-09T04:20:05.771Z,-5.60
2023-02-09T04:22:30.257Z,-5.60
2023-02-09T04:24:57.236Z,-5.70
2023-02-09T04:27:22.090Z,-5.50
2023-02-09T04:29:47.785Z,-5.60
2023-02-09T04:32:12.611Z,-5.50
2023-02-09T04:34:37.476Z,-5.00
2023-02-09T04:37:02.063Z,-4.80
2023-02-09T04:39:26.697Z,-4.60
2023-02-09T04:41:52.705Z,-4.40
2023-02-09T04:44:17.188Z,-4.30
2023-02-09T04:46:42.125Z,-4.50
2023-02-09T04:49:07.596Z,-4.60
2023-02-09T04:51:32.161Z,-4.70
2023-02-09T04:53:56.888Z,-4.80
2023-02-09T04:56:21.582Z,-4.90
2023-02-09T04:59:05.086Z,-5.20
2023-02-09T05:01:30.046Z,-5.30
2023-02-09T05:03:55.141Z,-5.50
2023-02-09T05:06:20.415Z,-5.30
2023-02-09T05:08:45.644Z,-5.40
2023-02-09T05:11:10.546Z,-5.40
2023-02-09T05:13:35.449Z,-5.50
2023-02-09T05:16:01.361Z,-5.50
2023-02-09T05:18:26.548Z,-5.40
2023-02-09T05:20:51.468Z,-5.30
2023-02-09T05:23:16.253Z,-5.10
2023-02-09T05:25:41.153Z,-5.10
2023-02-09T05:28:06.310Z,-5.10
2023-02-09T05:30:31.697Z,-5.10
2023-02-09T05:32:58.016Z,-5.00
2023-02-09T05:35:22.735Z,-4.70
2023-02-09T05:37:47.419Z,-4.60
2023-02-09T05:40:13.936Z,-4.20
2023-02-09T05:42:38.696Z,-4.10
2023-02-09T05:45:03.332Z,-3.80
2023-02-09T05:47:29.838Z,-3.50
2023-02-09T05:49:55.888Z,-3.20
2023-02-09T05:52:21.409Z,-2.80
2023-02-09T05:54:46.157Z,-2.70
2023-02-09T05:57:11.468Z,-2.70
2023-02-09T05:59:36.269Z,-2.60
2023-02-09T06:02:01.497Z,-2.40
2023-02-09T06:04:26.670Z,-2.40
2023-02-09T06:06:53.136Z,-2.50
2023-02-09T06:09:19.459Z,-2.60
2023-02-09T06:11:44.023Z,-2.40
2023-02-09T06:14:08.615Z,-2.30
2023-02-09T06:16:33.358Z,-2.20
2023-02-09T06:18:58.032Z,-2.30
2023-02-09T06:21:22.602Z,-2.30
2023-02-09T06:23:48.753Z,-2.00
2023-02-09T06:26:15.801Z,-1.80
2023-02-09T06:28:41.030Z,-1.90
2023-02-09T06:31:06.278Z,-2.00
2023-02-09T06:33:31.181Z,-2.00
2023-02-09T06:35:55.797Z,-1.50
2023-02-09T06:38:20.402Z,-1.50
2023-02-09T06:40:47.396Z,-1.60
2023-02-09T06:43:12.173Z,-1.50
2023-02-09T06:45:40.613Z,-1.50
2023-02-09T06:48:06.368Z,-1.40
2023-02-09T06:50:31.120Z,-1.00
2023-02-09T06:52:55.872Z,-0.80
2023-02-09T06:55:20.590Z,-0.70
2023-02-09T06:57:46.828Z,-0.60
2023-02-09T07:00:13.031Z,-0.80
2023-02-09T07:02:37.666Z,-0.70
2023-02-09T07:05:02.230Z,-0.20
2023-02-09T07:07:28.565Z,0.00
2023-02-09T07:09:53.436Z,0.30
2023-02-09T07:12:18.223Z,0.50
2023-02-09T07:14:46.016Z,1.00
2023-02-09T07:17:10.641Z,1.50
2023-02-09T07:19:35.228Z,1.70
2023-02-09T07:21:59.818Z,1.80
2023-02-09T07:24:24.798Z,1.70
2023-02-09T07:26:49.382Z,1.70
2023-02-09T07:29:13.949Z,1.70
2023-02-09T07:31:40.501Z,1.80
2023-02-09T07:34:05.423Z,1.70
2023-02-09T07:36:30.442Z,1.50
2023-02-09T07:39:00.197Z,1.70
2023-02-09T07:41:27.915Z,1.70
2023-02-09T07:43:54.309Z,1.90
2023-02-09T07:46:25.848Z,2.20
2023-02-09T07:48:55.457Z,2.30
2023-02-09T07:51:55.301Z,2.30
2023-02-09T07:54:52.522Z,2.70
2023-02-09T07:57:32.127Z,2.30
2023-02-09T07:59:57.970Z,2.40
2023-02-09T08:02:48.982Z,2.80
2023-02-09T08:05:24.150Z,2.70
2023-02-09T08:07:50.149Z,2.50
2023-02-09T08:10:26.674Z,2.60
2023-02-09T08:13:01.067Z,2.20
2023-02-09T08:15:26.450Z,1.70
2023-02-09T08:17:54.372Z,2.00
2023-02-09T08:20:25.051Z,2.30
2023-02-09T08:22:57.492Z,2.30
2023-02-09T08:25:23.872Z,2.10
2023-02-09T08:27:49.085Z,2.30
2023-02-09T08:30:20.947Z,2.30
2023-02-09T08:32:56.869Z,2.30
2023-02-09T08:35:24.045Z,2.10
2023-02-09T08:37:51.398Z,2.10
2023-02-09T08:40:24.197Z,2.10
2023-02-09T08:42:49.082Z,1.70
2023-02-09T08:45:13.788Z,1.30
2023-02-09T08:47:38.998Z,1.10
2023-02-09T08:50:03.977Z,1.10
2023-02-09T08:52:30.095Z,1.10
2023-02-09T08:54:54.724Z,0.80
2023-02-09T08:57:19.268Z,0.90
2023-02-09T08:59:44.028Z,1.20
2023-02-09T09:02:08.652Z,1.30
2023-02-09T09:04:33.608Z,1.40
2023-02-09T09:06:58.304Z,1.40
2023-02-09T09:09:25.000Z,1.20
2023-02-09T09:11:49.990Z,1.20
2023-02-09T09:14:14.639Z,1.30
2023-02-09T09:16:39.412Z,1.10
2023-02-09T09:19:06.521Z,1.10
2023-02-09T09:21:31.009Z,1.10
2023-02-09T09:23:55.608Z,1.10
2023-02-09T09:26:21.831Z,1.10
2023-02-09T09:28:47.060Z,1.10
2023-02-09T09:31:12.718Z,1.00
2023-02-09T09:33:37.639Z,1.10
2023-02-09T09:36:03.228Z,1.20
2023-02-09T09:38:27.914Z,1.70
2023-02-09T09:40:52.695Z,2.40
2023-02-09T09:43:26.089Z,2.50
2023-02-09T09:45:51.959Z,2.50
2023-02-09T09:48:24.669Z,2.10
2023-02-09T09:50:50.205Z,2.10
2023-02-09T09:53:19.285Z,2.40
2023-02-09T09:55:46.200Z,2.40
2023-02-09T09:58:20.359Z,2.30
2023-02-09T10:00:44.929Z,2.20
2023-02-09T10:03:16.235Z,2.00
2023-02-09T10:05:41.765Z,1.80
2023-02-09T10:08:13.173Z,1.90
2023-02-09T10:10:43.689Z,1.90
2023-02-09T10:13:17.507Z,2.40
2023-02-09T10:15:49.044Z,2.70
2023-02-09T10:18:17.073Z,2.80
2023-02-09T10:20:45.417Z,3.00
2023-02-09T10:23:17.534Z,3.70
2023-02-09T10:25:54.212Z,4.10
2023-02-09T10:28:23.000Z,4.30
2023-02-09T10:30:53.153Z,4.50
2023-02-09T10:33:17.975Z,4.30
2023-02-09T10:35:46.611Z,4.30
2023-02-09T10:38:18.851Z,4.60
2023-02-09T10:40:44.215Z,4.50
2023-02-09T10:43:25.911Z,4.50
2023-02-09T10:45:57.795Z,4.60
2023-02-09T10:48:24.527Z,4.20
2023-02-09T10:50:51.927Z,3.80
2023-02-09T10:53:22.492Z,3.50
2023-02-09T10:55:47.608Z,3.70
2023-02-09T10:58:22.155Z,4.10
2023-02-09T11:00:52.221Z,4.40
2023-02-09T11:03:22.200Z,4.40
2023-02-09T11:05:48.727Z,4.20
2023-02-09T11:08:19.039Z,4.50
2023-02-09T11:10:51.424Z,4.90
2023-02-09T11:13:22.468Z,4.80
2023-02-09T11:16:00.301Z,4.50
2023-02-09T11:18:30.150Z,4.60
2023-02-09T11:21:00.766Z,4.50
2023-02-09T11:23:40.168Z,4.40
2023-02-09T11:26:10.643Z,4.40
2023-02-09T11:28:48.831Z,3.90
2023-02-09T11:31:51.846Z,4.00
2023-02-09T11:34:51.869Z,4.20
2023-02-09T11:37:22.665Z,3.90
2023-02-09T11:39:55.070Z,3.80
2023-02-09T11:42:43.517Z,3.60
2023-02-09T11:45:12.412Z,3.60
2023-02-09T11:47:50.855Z,3.60
2023-02-09T11:50:25.915Z,4.00
2023-02-09T11:52:54.058Z,4.20
2023-02-09T11:55:29.048Z,4.00
2023-02-09T11:57:59.921Z,3.70
2023-02-09T12:00:29.169Z,3.60
2023-02-09T12:03:00.732Z,3.40
2023-02-09T12:05:28.217Z,3.50
2023-02-09T12:08:15.843Z,3.20
2023-02-09T12:10:46.675Z,3.00
2023-02-09T12:13:27.357Z,3.00
2023-02-09T12:15:53.736Z,3.10
2023-02-09T12:18:21.302Z,3.00
2023-02-09T12:20:55.882Z,3.50
2023-02-09T12:23:32.028Z,3.50
2023-02-09T12:26:00.020Z,3.50
2023-02-09T12:28:45.166Z,3.20
2023-02-09T12:31:28.470Z,3.20
2023-02-09T12:34:21.867Z,3.30
2023-02-09T12:37:28.472Z,2.80
2023-02-09T12:40:22.935Z,2.80
2023-02-09T12:43:04.292Z,2.50
2023-02-09T12:45:37.025Z,2.50
2023-02-09T12:48:12.610Z,2.30
2023-02-09T12:50:52.464Z,2.10
2023-02-09T12:53:47.168Z,2.20
2023-02-09T12:56:33.682Z,2.40
2023-02-09T12:59:14.375Z,2.40
2023-02-09T13:02:06.191Z,2.20
2023-02-09T13:04:36.306Z,2.40
2023-02-09T13:07:04.216Z,2.40
2023-02-09T13:09:36.569Z,2.50
2023-02-09T13:12:11.729Z,2.50
2023-02-09T13:14:38.839Z,2.80
2023-02-09T13:17:29.421Z,2.50
2023-02-09T13:20:16.906Z,2.50
2023-02-09T13:22:54.444Z,2.50
2023-02-09T13:25:30.013Z,2.30
2023-02-09T13:27:55.573Z,2.40
2023-02-09T13:30:28.062Z,2.40
2023-02-09T13:33:03.055Z,2.20
2023-02-09T13:35:32.033Z,2.20
2023-02-09T13:37:58.474Z,2.10
2023-02-09T13:40:26.687Z,2.20
2023-02-09T13:43:00.524Z,2.10
2023-02-09T13:45:28.276Z,2.20
2023-02-09T13:47:53.157Z,2.40
2023-02-09T13:50:20.524Z,2.70
2023-02-09T13:52:45.393Z,2.40
2023-02-09T13:55:13.072Z,2.10
2023-02-09T13:57:42.167Z,1.90
2023-02-09T14:00:15.119Z,1.80
2023-02-09T14:02:50.430Z,1.80
2023-02-09T14:05:26.705Z,1.80
2023-02-09T14:07:52.588Z,1.70
2023-02-09T14:10:19.968Z,1.60
2023-02-09T14:12:56.523Z,1.40
2023-02-09T14:15:41.780Z,1.20
2023-02-09T14:18:33.555Z,1.20
2023-02-09T14:21:10.744Z,1.10
2023-02-09T14:23:50.398Z,1.00
2023-02-09T14:26:30.215Z,0.90
2023-02-09T14:29:08.556Z,0.80
2023-02-09T14:31:37.948Z,0.80
2023-02-09T14:34:03.448Z,0.60
2023-02-09T14:36:34.725Z,0.60
2023-02-09T14:39:13.648Z,0.50
2023-02-09T14:41:43.070Z,0.40
2023-02-09T14:44:22.044Z,0.40
2023-02-09T14:46:51.984Z,0.30
2023-02-09T14:49:16.525Z,0.40
2023-02-09T14:51:41.459Z,0.50
2023-02-09T14:54:19.172Z,0.60
2023-02-09T14:56:44.105Z,0.60
2023-02-09T14:59:12.338Z,0.30
2023-02-09T15:01:38.747Z,0.20
2023-02-09T15:04:03.317Z,0.20
2023-02-09T15:06:33.114Z,0.10
2023-02-09T15:08:57.701Z,0.00
2023-02-09T15:11:42.881Z,-0.20
2023-02-09T15:14:09.684Z,-0.30
2023-02-09T15:16:34.559Z,-0.40
2023-02-09T15:19:01.122Z,-0.50
2023-02-09T15:21:26.383Z,-0.40
2023-02-09T15:23:51.307Z,-0.40
2023-02-09T15:26:17.837Z,-0.50
2023-02-09T15:28:42.372Z,-0.60
2023-02-09T15:31:06.943Z,-0.60
2023-02-09T15:33:31.523Z,-0.60
2023-02-09T15:35:59.646Z,-0.70
2023-02-09T15:38:24.716Z,-0.80
2023-02-09T15:41:08.211Z,-0.90
2023-02-09T15:43:50.218Z,-0.90
2023-02-09T15:46:32.997Z,-0.90
2023-02-09T15:48:57.622Z,-0.90
2023-02-09T15:51:25.233Z,-0.90
2023-02-09T15:53:50.686Z,-1.00
2023-02-09T15:56:15.948Z,-1.00
2023-02-09T15:58:43.428Z,-1.10
2023-02-09T16:01:08.511Z,-1.00
2023-02-09T16:03:33.505Z,-1.10
2023-02-09T16:06:01.720Z,-1.00
2023-02-09T16:08:30.364Z,-1.10
2023-02-09T16:10:55.685Z,-1.10
2023-02-09T16:13:21.216Z,-1.20
2023-02-09T16:15:46.188Z,-1.20
2023-02-09T16:18:10.988Z,-1.20
2023-02-09T16:20:36.042Z,-1.20
2023-02-09T16:23:18.658Z,-1.20
2023-02-09T16:25:48.175Z,-1.30
2023-02-09T16:28:15.232Z,-1.20
2023-02-09T16:30:49.264Z,-1.10
2023-02-09T16:33:16.986Z,-1.00
2023-02-09T16:35:42.073Z,-0.90
2023-02-09T16:38:17.407Z,-0.90
2023-02-09T16:40:42.169Z,-0.80
2023-02-09T16:43:12.443Z,-0.70
2023-02-09T16:45:38.845Z,-0.60
2023-02-09T16:48:03.923Z,-0.60
2023-02-09T16:50:32.972Z,-0.50
2023-02-09T16:52:58.060Z,-0.40
2023-02-09T16:55:26.516Z,-0.40
2023-02-09T16:57:54.674Z,-0.30
2023-02-09T17:00:21.444Z,-0.40
2023-02-09T17:02:51.096Z,-0.30
2023-02-09T17:05:20.423Z,-0.30
2023-02-09T17:07:54.460Z,-0.20
2023-02-09T17:10:21.475Z,-0.20
2023-02-09T17:12:46.478Z,-0.20
2023-02-09T17:15:28.515Z,-0.20
2023-02-09T17:17:58.457Z,-0.20
2023-02-09T17:20:24.873Z,-0.30
2023-02-09T17:22:52.170Z,-0.30
2023-02-09T17:25:17.821Z,-0.30
2023-02-09T17:27:42.419Z,-0.30
2023-02-09T17:30:08.749Z,-0.40
2023-02-09T17:32:33.572Z,-0.40
2023-02-09T17:34:59.575Z,-0.30
2023-02-09T17:37:24.243Z,-0.30
2023-02-09T17:39:50.839Z,-0.30
2023-02-09T17:42:22.932Z,-0.40
2023-02-09T17:44:47.558Z,-0.40
2023-02-09T17:47:16.240Z,-0.40
2023-02-09T17:49:41.069Z,-0.40
2023-02-09T17:52:07.308Z,-0.40
2023-02-09T17:54:33.676Z,-0.30
2023-02-09T17:56:58.126Z,-0.30
2023-02-09T17:59:23.043Z,-0.50
2023-02-09T18:01:50.391Z,-0.50
2023-02-09T18:04:18.657Z,-0.60
2023-02-09T18:06:43.257Z,-0.40
2023-02-09T18:09:11.218Z,-0.30
2023-02-09T18:12:02.235Z,-0.30
2023-02-09T18:14:28.834Z,-0.30
2023-02-09T18:16:55.289Z,-0.10
2023-02-09T18:19:20.031Z,-0.20
2023-02-09T18:21:49.174Z,-0.30
2023-02-09T18:24:15.429Z,-0.20
2023-02-09T18:26:40.003Z,-0.40
2023-02-09T18:29:04.943Z,-0.40
2023-02-09T18:31:29.695Z,-0.40
2023-02-09T18:33:54.287Z,-0.40
2023-02-09T18:36:18.766Z,-0.40
2023-02-09T18:38:43.262Z,-0.10
2023-02-09T18:41:12.852Z,0.00
2023-02-09T18:43:37.496Z,-0.10
2023-02-09T18:46:02.014Z,-0.30
2023-02-09T18:48:27.283Z,-0.40
2023-02-09T18:50:53.036Z,-0.50
2023-02-09T18:53:19.441Z,-0.50
2023-02-09T18:55:44.185Z,-0.50
2023-02-09T18:58:10.433Z,-0.60
2023-02-09T19:00:34.948Z,-0.70
2023-02-09T19:03:00.300Z,-0.70
2023-02-09T19:05:26.531Z,-0.70
2023-02-09T19:07:50.977Z,-0.80
2023-02-09T19:10:19.834Z,-0.70
2023-02-09T19:12:45.491Z,-0.80
2023-02-09T19:15:11.640Z,-0.90
2023-02-09T19:17:36.500Z,-1.00
2023-02-09T19:20:01.690Z,-1.10
2023-02-09T19:22:27.032Z,-1.10
2023-02-09T19:24:53.382Z,-1.20
2023-02-09T19:27:18.993Z,-1.20
2023-02-09T19:29:43.853Z,-1.30
2023-02-09T19:32:10.319Z,-1.20
2023-02-09T19:34:37.303Z,-1.30
2023-02-09T19:37:02.390Z,-1.30
2023-02-09T19:39:28.343Z,-1.40
2023-02-09T19:41:53.105Z,-1.50
2023-02-09T19:44:17.853Z,-1.60
2023-02-09T19:46:42.745Z,-1.60
2023-02-09T19:49:08.779Z,-1.70
2023-02-09T19:51:33.194Z,-1.70
2023-02-09T19:53:57.664Z,-1.60
2023-02-09T19:56:23.484Z,-1.70
2023-02-09T19:58:47.994Z,-1.80
2023-02-09T20:01:12.809Z,-1.90
2023-02-09T20:03:37.543Z,-1.80
2023-02-09T20:06:07.688Z,-1.90
2023-02-09T20:08:32.153Z,-1.90
2023-02-09T20:10:56.554Z,-1.90
2023-02-09T20:15:50.512Z,-1.80
2023-02-09T20:18:17.669Z,-1.80
2023-02-09T20:20:43.095Z,-1.80
2023-02-09T20:23:09.430Z,-1.90
2023-02-09T20:25:33.963Z,-2.00
2023-02-09T20:27:58.539Z,-2.00
2023-02-09T20:30:22.988Z,-2.00
2023-02-09T20:32:47.667Z,-2.00
2023-02-09T20:35:13.226Z,-2.00
2023-02-09T20:37:38.086Z,-2.10
2023-02-09T20:40:04.364Z,-2.10
2023-02-09T20:42:46.430Z,-2.10
2023-02-09T20:45:31.721Z,-2.10
2023-02-09T20:47:56.178Z,-2.20
2023-02-09T20:50:20.577Z,-2.20
2023-02-09T20:52:45.768Z,-2.20
2023-02-09T20:55:11.638Z,-2.20
2023-02-09T20:57:37.222Z,-2.20
2023-02-09T21:00:02.029Z,-1.90
2023-02-09T21:02:31.096Z,-2.10
2023-02-09T21:04:57.548Z,-2.00
2023-02-09T21:07:22.039Z,-2.10
2023-02-09T21:09:46.531Z,-2.10
2023-02-09T21:12:14.542Z,-2.10
2023-02-09T21:14:42.205Z,-2.10
2023-02-09T21:17:07.467Z,-2.00
2023-02-09T21:19:34.441Z,-2.00
2023-02-09T21:21:58.950Z,-2.00
2023-02-09T21:24:23.428Z,-2.00
2023-02-09T21:26:48.244Z,-1.80
2023-02-09T21:29:14.855Z,-1.90
2023-02-09T21:31:39.399Z,-1.80
2023-02-09T21:34:04.073Z,-1.90
2023-02-09T21:36:28.469Z,-1.90
2023-02-09T21:38:53.119Z,-1.80
2023-02-09T21:41:33.468Z,-1.80
2023-02-09T21:43:58.016Z,-2.00
2023-02-09T21:46:24.899Z,-2.00
2023-02-09T21:48:49.343Z,-2.00
2023-02-09T21:51:13.760Z,-2.10
2023-02-09T21:53:38.210Z,-2.10
2023-02-09T21:56:06.655Z,-2.20
2023-02-09T21:58:32.284Z,-2.20
2023-02-09T22:00:58.857Z,-2.30
2023-02-09T22:03:24.898Z,-2.20
2023-02-09T22:05:57.230Z,-2.30
2023-02-09T22:08:21.622Z,-2.30
2023-02-09T22:10:48.929Z,-2.30
2023-02-09T22:13:14.754Z,-2.30
2023-02-09T22:15:41.600Z,-2.30
2023-02-09T22:18:06.139Z,-2.20
2023-02-09T22:20:32.045Z,-2.20
2023-02-09T22:22:56.455Z,-2.20
2023-02-09T22:25:22.664Z,-2.30
2023-02-09T22:27:47.096Z,-2.30
2023-02-09T22:30:12.426Z,-2.20
2023-02-09T22:32:37.165Z,-2.20
2023-02-09T22:35:01.704Z,-2.20
2023-02-09T22:37:28.890Z,-2.30
2023-02-09T22:39:53.728Z,-2.20
2023-02-09T22:42:18.152Z,-2.20
2023-02-09T22:44:42.593Z,-2.40
2023-02-09T22:47:07.214Z,-2.40
2023-02-09T22:49:31.773Z,-2.40
2023-02-09T22:51:56.272Z,-2.40
2023-02-09T22:54:22.267Z,-2.50
2023-02-09T22:56:47.241Z,-2.40
2023-02-09T22:59:12.836Z,-2.50
2023-02-09T23:01:37.470Z,-2.50
2023-02-09T23:04:02.034Z,-2.60
2023-02-09T23:06:28.710Z,-2.60
2023-02-09T23:08:54.518Z,-2.50
2023-02-09T23:11:20.414Z,-2.60
2023-02-09T23:13:45.865Z,-2.50
2023-02-09T23:16:12.295Z,-2.50
2023-02-09T23:18:36.891Z,-2.50
2023-02-09T23:21:03.412Z,-2.50
2023-02-09T23:23:27.745Z,-2.50
2023-02-09T23:25:53.419Z,-2.60
2023-02-09T23:28:19.796Z,-2.60
2023-02-09T23:30:45.508Z,-2.60
2023-02-09T23:33:09.972Z,-2.70
2023-02-09T23:35:34.620Z,-2.80
2023-02-09T23:37:58.955Z,-2.80
2023-02-09T23:40:23.489Z,-2.70
2023-02-09T23:42:47.900Z,-2.70
2023-02-09T23:45:14.102Z,-2.60
2023-02-09T23:47:38.650Z,-2.60
2023-02-09T23:50:03.210Z,-2.70
2023-02-09T23:52:27.712Z,-2.70
2023-02-09T23:54:52.413Z,-2.70
2023-02-09T23:57:18.163Z,-2.50
2023-02-09T23:59:42.774Z,-2.70
